Tiempo atmosférico en la estación meteorológica de Eivissa Aeropuerto, Illes Balears (6 m.)



Fecha
DESCASC
Temp. máxima en grados centígrados (hora)
DESCASC
Temp. mínima en grados centígrados (hora)
DESCASC
Temp. media en grados centígrados
DESCASC
Racha de viento máxima en m/sg (hora)
DESCASC
Velocidad máxima media en intervalos de 10 minutos(hora)
DESCASC
Precipitaciones diarias en mm
DESCASC
Precipitaciones de 00:00 a 06:00 en mm
DESCASC
Precipitaciones de 06:00 a 12:00 en mm
DESCASC
Precipitaciones de 12:00 a 18:00 en mm
DESCASC
Precipitaciones de 18:00 a 24:00 en mm
DESCASC

Gráficas

Temp. máximas Temp. mínimas Temp. medias Precipitaciones Rachas de viento máximas Velocidades máximas media en intervalos de 10 minutos

Datos horarios

Fecha y hora oficial Temperatura (ºC) Velocidad del viento (km/h) Dirección del viento Racha (km/h) Dirección de racha Precipitación (mm) Presión (hPa) Tendencia (hPa) Humedad (%)
2018-05-21 23:00:00 17 7 Noroeste 18 Oeste 0 1011.3 1.7 83
2018-05-21 22:00:00 18.2 12 Oeste 21 Oeste 0 1010.7 1.4 81
2018-05-21 21:00:00 18.8 17 Sudoeste 28 Sudoeste 0 1010 0.8 77
2018-05-21 20:00:00 19.9 21 Sudoeste 30 Sudoeste 0 1009.6 0.5 73
2018-05-21 19:00:00 20.7 21 Sudoeste 32 Sudoeste 0 1009.3 -0.1 71
2018-05-21 18:00:00 21.1 23 Sudoeste 32 Sudoeste 0 1009.2 -0.5 68
2018-05-21 17:00:00 21.3 26 Sudoeste 33 Sudoeste 0 1009.1 -0.8 68
2018-05-21 16:00:00 21.1 22 Sudoeste 33 Sudoeste 0 1009.4 -0.7 68
2018-05-21 15:00:00 20.8 24 Sudoeste 32 Sudoeste 0 1009.7 -0.6 67
2018-05-21 14:00:00 21.4 26 Sudoeste 33 Sudoeste 0 1009.9 -0.3 66
2018-05-21 13:00:00 20.9 23 Sudoeste 33 Sudoeste 0 1010.1 -0.3 69
2018-05-21 12:00:00 20.4 19 Sur 26 Sudoeste 0 1010.3 -0.1 73
2018-05-21 11:00:00 20.9 16 Sudoeste 22 Sudoeste 0 1010.2 -0.2 71
2018-05-21 10:00:00 20.4 10 Oeste 17 Oeste 0 1010.4 0.4 69
2018-05-21 09:00:00 18.7 4 Oeste 9 Oeste 0 1010.4 0.4 81
2018-05-21 08:00:00 17 6 Oeste 11 Oeste 0 1010.4 0.4 88
2018-05-21 07:00:00 15.6 7 Noroeste 9 Noroeste 0 1010 -0.2 92
2018-05-21 06:00:00 14.8 5 Oeste 9 Oeste 0 1010 -0.5 92
2018-05-21 05:00:00 15.1 5 Oeste 11 Noroeste 0 1010 -0.9 90
2018-05-21 04:00:00 14.9 8 Noroeste 11 Noroeste 0 1010.2 -1.1 91
2018-05-21 03:00:00 15.4 7 Noroeste 11 Noroeste 0 1010.5 -1.2 89
2018-05-21 02:00:00 16.2 3 Norte 11 Noroeste 0 1010.9 -0.8 83
2018-05-21 01:00:00 16.1 4 Norte 11 Noroeste 0 1011.3 -0.1 82
2018-05-21 00:00:00 16.4 5 Noroeste 11 Noroeste 0 1011.7 0.6 81
2018-05-20 23:00:00 17.3 5 Noroeste 15 Norte 0 1011.7 0.8 80
2018-05-20 22:00:00 17.7 3 Nordeste 9 Nordeste 0 1011.4 0.6 81
2018-05-20 21:00:00 18.6 8 Este 13 Este 0 1011.1 0.5 77
2018-05-20 20:00:00 19.2 8 Este 17 Este 0 1010.9 0 75
2018-05-20 19:00:00 19.8 10 Este 17 Norte 0 1010.8 -0.8 72
2018-05-20 18:00:00 20.8 11 Este 21 Norte 0 1010.6 -1.4 67
2018-05-20 17:00:00 20.9 13 Este 21 Este 0 1010.9 -1.6 65
2018-05-20 16:00:00 20.9 13 Este 22 Este 0 1011.6 -1.1 71
2018-05-20 15:00:00 20.8 15 Este 24 Este 0 1012 -0.9 71
2018-05-20 14:00:00 21.6 17 Este 28 Este 0 1012.5 -0.5 57
2018-05-20 13:00:00 21.5 18 Este 26 Este 0 1012.7 -0.3 61
2018-05-20 12:00:00 21.8 17 Este 28 Este 0 1012.9 0.2 65
2018-05-20 11:00:00 20.4 11 Este 18 Norte 0 1013 0.2 73
2018-05-20 10:00:00 20.3 11 Este 22 Nordeste 0 1013 0.3 71
2018-05-20 09:00:00 19.2 13 Nordeste 21 Nordeste 0 1012.7 0.2 76
2018-05-20 08:00:00 16.4 0 Calma 9 Norte 0 1012.8 0.1 85
2018-05-20 07:00:00 14.4 6 Norte 9 Norte 0 1012.7 0 89
2018-05-20 06:00:00 15.7 4 Norte 8 Norte 0 1012.5 -1 87
2018-05-20 05:00:00 15.6 4 Sudeste 8 Sudeste 0 1012.7 -1.3 87
2018-05-20 04:00:00 15.3 3 Sudeste 5 Sudeste 0 1012.7 -1.6 87
2018-05-20 03:00:00 15.7 3 Norte 5 Noroeste 0 1013.5 -1.1 85
2018-05-20 02:00:00 14.8 2 Noroeste 21 Noroeste 0 1014 -0.3 87
2018-05-20 01:00:00 15.8 9 Noroeste 21 Norte 0 1014.3 0.2 84
2018-05-20 00:00:00 15.7 7 Noroeste 18 Noroeste 0 1014.6 0.9 85
2018-05-19 23:00:00 16.5 7 Norte 15 Norte 0 1014.3 0.8 82
2018-05-19 22:00:00 16.7 2 Sudeste 11 Este 0 1014.1 0.9 83
2018-05-19 21:00:00 17.8 7 Este 15 Este 0 1013.7 0.3 78
2018-05-19 20:00:00 19 10 Este 17 Este 0 1013.5 0 73
2018-05-19 19:00:00 19.4 12 Este 18 Este 0 1013.2 -0.5 72
2018-05-19 18:00:00 20.1 11 Este 26 Este 0 1013.4 -0.8 69
2018-05-19 17:00:00 20.7 18 Este 30 Este 0 1013.5 -1.1 65
2018-05-19 16:00:00 20.8 22 Este 32 Este 0 1013.7 -1.2 61
2018-05-19 15:00:00 20.7 22 Nordeste 35 Este 0 1014.2 -0.9 68
2018-05-19 14:00:00 21 22 Este 33 Este 0 1014.6 -0.5 67
2018-05-19 13:00:00 20.3 24 Este 37 Este 0 1014.9 0 68
2018-05-19 12:00:00 20.5 23 Nordeste 35 Este 0 1015.1 0.7 70
2018-05-19 11:00:00 19.6 15 Este 22 Este 0 1015.1 0.7 75
2018-05-19 10:00:00 19.5 9 Este 21 Nordeste 0 1014.9 1 70
2018-05-19 09:00:00 18.5 10 Nordeste 15 Nordeste 0 1014.4 0.9 74
2018-05-19 08:00:00 16.1 8 Norte 15 Norte 0 1014.4 0.9 87
2018-05-19 07:00:00 14 10 Norte 18 Norte 0 1013.9 0.1 91
2018-05-19 06:00:00 13.9 4 Nordeste 11 Norte 0 1013.5 -0.7 93
2018-05-19 05:00:00 14.2 9 Norte 11 Norte 0 1013.5 -1.2 90
2018-05-19 04:00:00 15 0 Calma 8 Nordeste 0 1013.8 -1 89
2018-05-19 03:00:00 15.6 6 Norte 11 Norte 0 1014.2 -0.7 89
2018-05-19 02:00:00 15.5 0 Calma 8 Norte 0 1014.7 -0.2 89
2018-05-19 01:00:00 16.2 6 Norte 15 Norte 0 1014.8 0.4 85
2018-05-19 00:00:00 17.2 6 Norte 15 Norte 0 1014.9 1 81
2018-05-18 23:00:00 17.1 6 Norte 18 Norte 0 1014.9 1.4 82
2018-05-18 22:00:00 16.8 9 Nordeste 24 Este 0 1014.4 1 84
2018-05-18 21:00:00 17.6 14 Este 26 Este 0 1013.9 0.6 83
2018-05-18 20:00:00 18 17 Este 32 Este 0 1013.5 0.1 81
2018-05-18 19:00:00 19.2 22 Este 33 Nordeste 0 1013.4 0 74
2018-05-18 18:00:00 19.8 23 Este 37 Este 0 1013.3 -0.4 74
2018-05-18 17:00:00 20.4 26 Este 42 Este 0 1013.4 -0.8 70
2018-05-18 16:00:00 20.8 27 Este 42 Este 0 1013.4 -1.3 63
2018-05-18 15:00:00 21.2 27 Este 39 Este 0 1013.7 -0.9 64
2018-05-18 14:00:00 20.8 21 Este 32 Este 0 1014.2 -0.2 70
2018-05-18 13:00:00 21.1 22 Nordeste 33 Norte 0 1014.7 0.2 67
2018-05-18 12:00:00 20.9 22 Este 32 Este 0 1014.6 0.2 64
2018-05-18 11:00:00 20.3 20 Este 32 Este 0 1014.4 0.3 69
2018-05-18 10:00:00 19.6 17 Este 28 Este 0 1014.5 0.8 69
2018-05-18 09:00:00 18.7 15 Nordeste 26 Norte 0 1014.4 1 65
2018-05-18 08:00:00 17.4 11 Norte 22 Norte 0 1014.1 0.7 75
2018-05-18 07:00:00 16.5 12 Norte 18 Norte 0 1013.7 0.3 85
2018-05-18 06:00:00 15.6 4 Sudeste 18 Nordeste 0 1013.4 -0.4 87
2018-05-18 05:00:00 12.8 8 Nordeste 15 Nordeste 0 1013.4 -0.6 89
2018-05-18 04:00:00 13.4 3 Noroeste 5 Noroeste 0 1013.4 -1.2 89
2018-05-18 03:00:00 13.7 3 Norte 5 Norte 0 1013.8 -1.1 88
2018-05-18 02:00:00 15.1 4 Noroeste 9 Noroeste 0 1014 -0.9 83
2018-05-18 01:00:00 15 4 Noroeste 11 Noroeste 0 1014.6 0.4 79
2018-05-18 00:00:00 14.8 2 Noroeste 9 Noroeste 0 1014.9 1 79
2018-05-17 23:00:00 15.8 8 Noroeste 21 Noroeste 0 1014.9 1.6 72
2018-05-17 22:00:00 16.7 7 Norte 13 Norte 0 1014.2 1.1 71
2018-05-17 21:00:00 17.4 6 Nordeste 9 Norte 0 1013.9 0.5 75
2018-05-17 20:00:00 18.7 7 Nordeste 18 Este 0 1013.3 -0.2 69
2018-05-17 19:00:00 19.6 12 Este 17 Este 0 1013.1 -0.6 66
2018-05-17 18:00:00 20 10 Este 18 Este 0 1013.4 -0.3 64
2018-05-17 17:00:00 19.9 10 Este 22 Este 0 1013.5 -0.6 63
2018-05-17 16:00:00 20.3 17 Este 26 Norte 0 1013.7 -0.8 69
2018-05-17 15:00:00 20.8 15 Este 24 Este 0 1013.7 -0.6 71
2018-05-17 14:00:00 20.1 17 Este 26 Este 0 1014.1 0.1 75
2018-05-17 13:00:00 19.9 17 Este 26 Este 0 1014.5 0.3 75
2018-05-17 12:00:00 19.7 17 Este 26 Este 0 1014.3 0.6 75
2018-05-17 11:00:00 19.4 18 Nordeste 30 Este 0 1014 0.4 76
2018-05-17 10:00:00 18.1 14 Este 22 Este 0 1014.2 0.8 83
2018-05-17 09:00:00 17 9 Nordeste 17 Nordeste 0 1013.7 0.2 85
2018-05-17 08:00:00 16 10 Nordeste 18 Nordeste 0 1013.6 -0.1 89
2018-05-17 07:00:00 15.1 9 Nordeste 17 Nordeste 0 1013.4 -0.7 91
2018-05-17 06:00:00 13.6 11 Norte 15 Norte 0 1013.5 -0.6 93
2018-05-17 05:00:00 13.7 10 Norte -- -- 0 1013.7 -0.9 92
2018-05-17 04:00:00 13.7 9 Norte 13 Norte 0 1014.1 -0.7 90
2018-05-17 03:00:00 14.5 9 Nordeste 15 Este 0 1014.1 -0.9 88
2018-05-17 02:00:00 15.7 10 Este 13 Este 0 1014.6 0.1 87
2018-05-17 01:00:00 14.4 6 Nordeste 11 Nordeste 0 1014.8 1 83
2018-05-17 00:00:00 15.1 4 Norte 13 Este 0 1015 1.4 81
2018-05-16 23:00:00 16.2 10 Este 17 Este 0 1014.5 1.1 82
2018-05-16 22:00:00 16.9 11 Este 21 Este 0 1013.8 0.3 81
2018-05-16 21:00:00 17.5 13 Este 22 Nordeste 0 1013.6 -0.1 77
2018-05-16 20:00:00 18.7 15 Nordeste 24 Norte 0 1013.4 -0.4 71
2018-05-16 19:00:00 19.5 18 Nordeste 26 Norte 0 1013.5 -1.1 66
2018-05-16 18:00:00 20.5 17 Este 32 Este 0 1013.7 -1.1 61
2018-05-16 17:00:00 20.3 18 Este 28 Este 0 1013.8 -1.5 62
2018-05-16 16:00:00 20.1 16 Este 30 Este 0 1014.6 -1.2 62
2018-05-16 15:00:00 20.1 18 Este 26 Este 0 1014.8 -1.1 61
2018-05-16 14:00:00 20.1 18 Este 26 Este 0 1015.3 -0.5 57
2018-05-16 13:00:00 19.7 17 Este 26 Este 0 1015.8 0.2 64
2018-05-16 12:00:00 19.7 16 Nordeste 24 Norte 0 1015.9 0.4 64
2018-05-16 11:00:00 19 15 Este 24 Nordeste 0 1015.8 0.7 70
2018-05-16 10:00:00 18.6 13 Este 21 Este 0 1015.6 1 71
2018-05-16 09:00:00 17.6 8 Nordeste 13 Este 0 1015.5 1 71
2018-05-16 08:00:00 14.1 5 Norte -- -- 0 1015.1 0.4 74
2018-05-16 07:00:00 10.8 6 Norte 11 Norte 0 1014.6 -0.1 80
2018-05-16 06:00:00 10.8 8 Norte 11 Norte 0 1014.5 -0.3 81
2018-05-16 05:00:00 11.3 6 Norte 9 Norte 0 1014.7 -0.6 84
2018-05-16 04:00:00 11.5 5 Norte 9 Norte 0 1014.7 -0.9 89
2018-05-16 03:00:00 11.7 5 Norte 9 Norte 0 1014.8 -0.9 89
2018-05-16 02:00:00 12.1 0 Calma 9 Noroeste 0 1015.3 -0.1 88
2018-05-16 01:00:00 12.9 6 Noroeste 11 Noroeste 0 1015.6 0.7 85
2018-05-16 00:00:00 13.4 8 Noroeste 13 Norte 0 1015.7 1.1 80
2018-05-15 23:00:00 14.6 7 Noroeste 11 Noroeste 0 1015.4 0.8 73
2018-05-15 22:00:00 15.2 5 Sudeste 9 Sur 0 1014.9 0.4 72
2018-05-15 21:00:00 16.5 5 Sudoeste 13 Sudeste 0 1014.6 -0.3 63
2018-05-15 20:00:00 18.6 8 Sur 17 Sur 0 1014.6 -0.6 56
2018-05-15 19:00:00 19.1 10 Sudoeste 24 Sudoeste 0 1014.5 -1.1 57
2018-05-15 18:00:00 19.2 13 Sudoeste 21 Sudoeste 0 1014.9 -1.1 57
2018-05-15 17:00:00 19.7 12 Sudoeste 24 Sudoeste 0 1015.2 -1 50
2018-05-15 16:00:00 19.7 13 Sur 22 Sur 0 1015.6 -1 53
2018-05-15 15:00:00 19.6 14 Sudoeste 22 Sur 0 1016 -0.7 54
2018-05-15 14:00:00 19.6 12 Sudoeste 21 Sudoeste 0 1016.2 -0.2 59
2018-05-15 13:00:00 19.9 10 Sur 18 Sudoeste 0 1016.6 0 56
2018-05-15 12:00:00 19.6 8 Sur 30 Sudeste 0 1016.7 0.4 55
2018-05-15 11:00:00 19.1 9 Sur 17 Sur 0 1016.4 0.1 56
2018-05-15 10:00:00 18.3 10 Este 17 Este 0 1016.6 0.9 57
2018-05-15 09:00:00 17.4 9 Nordeste 17 Norte 0 1016.3 0.8 60
2018-05-15 08:00:00 14.9 4 Sudeste 11 Sudeste 0 1016.3 0.8 78
2018-05-15 07:00:00 13.4 6 Nordeste 13 Nordeste 0 1015.7 0.4 75
2018-05-15 06:00:00 11.4 4 Oeste 8 Sudoeste 0 1015.5 -0.1 76
2018-05-15 05:00:00 11.3 5 Oeste 21 Noroeste 0 1015.5 -0.5 69
2018-05-15 04:00:00 11.4 6 Noroeste 9 Noroeste 0 1015.3 -1 71
2018-05-15 03:00:00 11.5 6 Norte 15 Oeste 0 1015.6 -0.9 78
2018-05-15 02:00:00 11.3 4 Noroeste 11 Noroeste 0 1016 -0.5 86
2018-05-15 01:00:00 12.4 8 Noroeste 18 Oeste 0 1016.3 0.2 80
2018-05-15 00:00:00 12.7 9 Noroeste 17 Noroeste 0 1016.5 1.2 78
2018-05-14 23:00:00 13.7 7 Noroeste 15 Norte 0 1016.5 2.1 74
2018-05-14 22:00:00 14.7 4 Sudeste 9 Este 0 1016.1 2.1 70
2018-05-14 21:00:00 15.9 8 Este 17 Norte 0 1015.3 1.1 66
2018-05-14 20:00:00 17.3 8 Este 21 Sudeste 0 1014.4 -0.1 58
2018-05-14 19:00:00 18.5 12 Sudeste 22 Sudeste 0 1014 -0.8 54
2018-05-14 18:00:00 19.5 8 Sur 28 Sudeste 0 1014.2 -0.9 48
2018-05-14 17:00:00 20.2 11 Sur 28 Sudeste 0 1014.5 -0.7 45
2018-05-14 16:00:00 20.9 20 Sur 32 Sur 0 1014.8 -0.7 44
2018-05-14 15:00:00 20.8 9 Norte 26 Norte 0 1015.1 -0.2 35
2018-05-14 14:00:00 20.8 17 Oeste 28 Oeste -- 1015.2 -0.1 34
2018-05-14 13:00:00 20.1 12 Norte 35 Norte 0 1015.5 -0.2 40
2018-05-14 12:00:00 18.6 15 Nordeste 26 Norte 0 1015.3 -0.5 53
2018-05-14 11:00:00 19.2 9 Este 17 Este 0 1015.3 -0.1 49
2018-05-14 10:00:00 17 5 Nordeste 24 Norte 0 1015.7 0.6 55
2018-05-14 09:00:00 16.8 14 Norte 28 Norte 0 1015.8 0.6 74
2018-05-14 08:00:00 16.7 13 Oeste 22 Sudoeste 0 1015.4 -0.2 82
2018-05-14 07:00:00 16.1 17 Sudoeste 24 Sudoeste 0 1015.1 -0.8 84
2018-05-14 06:00:00 15.7 16 Sudoeste 26 Sudoeste 0 1015.2 -1 80
2018-05-14 05:00:00 15.6 20 Sudoeste 26 Sudoeste 0 1015.6 -1.2 75
2018-05-14 04:00:00 15.6 19 Sudoeste 28 Sudoeste 0 1015.9 -1.4 73
2018-05-14 03:00:00 15.4 17 Sudoeste 28 Sudoeste 0 1016.2 -1.4 70
2018-05-14 02:00:00 15.5 20 Sudoeste 30 Sudoeste 0 1016.8 -0.8 63
2018-05-14 01:00:00 15.9 15 Sudoeste 26 Sur 0 1017.3 0 61
2018-05-11 20:00:00 19 12 Sudeste 21 Sudeste 0 1014.8 -0.4 83
2018-05-11 19:00:00 20.6 12 Este 21 Este 0 1014.6 -1.2 75
2018-05-11 18:00:00 21.4 13 Sudeste 22 Sudoeste 0 1014.9 -1.6 72
2018-05-11 17:00:00 21 14 Sudoeste 21 Sudoeste 0 1015.2 -1.8 67
2018-05-11 16:00:00 21.1 16 Sudoeste 22 Sudoeste 0 1015.8 -1.5 70
2018-05-11 15:00:00 21.2 15 Sur 22 Sur 0 1016.5 -1 70
2018-05-11 14:00:00 21.1 17 Sudoeste 24 Sudoeste 0 1017 -0.6 69
2018-05-11 13:00:00 20.7 14 Sudoeste 21 Sudoeste 0 1017.3 -0.3 64
2018-05-11 12:00:00 20.8 8 Sudeste 24 Este 0 1017.5 0.2 62
2018-05-11 11:00:00 19.9 13 Este 22 Este 0 1017.6 0.5 64
2018-05-11 10:00:00 19.5 11 Este 18 Este 0 1017.6 1 62
2018-05-11 09:00:00 18.7 13 Este 18 Este 0 1017.3 1.1 65
2018-05-11 08:00:00 17.7 11 Este 17 Este 0 1017.1 0.8 73
2018-05-11 07:00:00 17.1 6 Este 18 Este 0 1016.6 0 79
2018-05-11 06:00:00 16.3 12 Este 18 Este 0 1016.2 -0.1 86
2018-05-11 05:00:00 16.8 9 Este 18 Este 0 1016.3 -0.2 86
2018-05-11 04:00:00 17.2 13 Este 26 Este 0 1016.6 -0.2 83
2018-05-11 03:00:00 17.2 15 Este 26 Este 0 1016.3 -0.4 81
2018-05-11 02:00:00 17.5 15 Este 24 Este 0 1016.5 -0.4 84
2018-05-11 01:00:00 17.3 13 Este 22 Este 0 1016.8 0.6 88
2018-05-11 00:00:00 16.9 10 Nordeste 17 Este 0 1016.7 1.4 92
2018-05-10 23:00:00 17 8 Nordeste 13 Norte 0 1016.9 2.1 94
2018-05-10 22:00:00 16.7 5 Nordeste 9 Este 0 1016.2 2 92
2018-05-10 21:00:00 17.6 8 Nordeste 17 Este 0 1015.3 1.2 88
2018-05-10 20:00:00 18.5 13 Este 22 Nordeste 0 1014.8 0.8 85
2018-05-10 19:00:00 19.2 18 Nordeste 28 Nordeste 0 1014.2 0.5 80
2018-05-10 18:00:00 20.1 19 Nordeste 30 Este 0 1014.1 0.7 70
2018-05-10 17:00:00 20.2 17 Este 32 Este 0 1014 0.8 67
2018-05-10 16:00:00 20.5 24 Este 39 Este 0 1013.7 0.7 64
2018-05-10 15:00:00 21.2 26 Este 41 Este 0 1013.4 0.8 58
2018-05-10 14:00:00 22.5 20 Este 30 Este 0 1013.2 0.9 50
2018-05-10 13:00:00 22.2 18 Este 37 Este 0 1013 1.4 53
2018-05-10 12:00:00 20.4 24 Este 37 Este 0 1012.6 1.7 73
2018-05-10 11:00:00 20.4 21 Este 30 Este 0 1012.3 2.1 78
2018-05-10 10:00:00 20.3 10 Este 18 Norte 0 1011.6 1.9 77
2018-05-10 09:00:00 19.1 10 Nordeste 15 Nordeste 0 1010.9 2.3 80
2018-05-10 08:00:00 17.6 9 Nordeste -- -- 0 1010.2 1.7 90
2018-05-10 07:00:00 16.8 5 Noroeste 9 Norte 0 1009.7 1.3 94
2018-05-10 06:00:00 17.1 6 Este 11 Este 0 1008.6 0.4 94
2018-05-10 05:00:00 17.5 3 Este 11 Este 0 1008.5 0 93
2018-05-10 04:00:00 17.7 6 Sudeste 13 Sur 0 1008.4 -0.1 92
2018-05-10 03:00:00 17.7 7 Sur 17 Sur 0 1008.2 -0.5 92
2018-05-10 02:00:00 17.5 9 Sudoeste 17 Sur 0 1008.5 -0.4 92
2018-05-10 01:00:00 17.6 7 Sur 15 Sur 0 1008.5 0.1 91
2018-05-10 00:00:00 17.6 8 Sur 17 Sur 0 1008.7 0.6 92
2018-05-09 23:00:00 16.9 10 Sur 15 Sudoeste 0 1008.9 1.1 92
2018-05-09 22:00:00 16.8 7 Sur 13 Sur 0 1008.4 0.8 91
2018-05-09 21:00:00 17.7 6 Sudoeste 18 Sudoeste 0 1008.1 0.7 88
2018-05-09 20:00:00 18.2 14 Sudoeste 24 Sur 0 1007.8 0.4 85
2018-05-09 19:00:00 18.5 13 Sudoeste 21 Sudoeste 0 1007.6 -0.4 83
2018-05-09 18:00:00 19.5 13 Sudoeste 21 Sudoeste 0 1007.4 -1.1 80
2018-05-09 17:00:00 19.8 13 Sudoeste 26 Sudoeste 0 1007.4 -1.5 78
2018-05-09 16:00:00 19.9 17 Sudoeste 26 Sudoeste 0 1008 -1 76
2018-05-09 15:00:00 20.2 19 Sudoeste 26 Sudoeste 0 1008.5 -0.7 74
2018-05-09 14:00:00 20.1 17 Sudoeste 28 Sudoeste 0 1008.9 -0.5 76
2018-05-09 13:00:00 20 20 Sudoeste -- -- -- 1009 -0.3 76
2018-05-09 12:00:00 19.6 17 Sudoeste 24 Sudoeste 0 1009.2 -0.1 78
2018-05-09 11:00:00 19 14 Sudoeste 22 Sudoeste 0 1009.4 0.5 77
2018-05-09 10:00:00 18.2 16 Sudoeste 21 Sudoeste 0 1009.3 1 80
2018-05-09 09:00:00 17.4 12 Sudoeste 21 Sudoeste 0 1009.3 1.3 84
2018-05-09 08:00:00 16.7 11 Sudoeste 15 Sudoeste 0 1008.9 0.5 89
2018-05-09 07:00:00 16.1 12 Sur 17 Sur 0 1008.3 -0.7 94
2018-05-09 06:00:00 14 3 Norte 9 Oeste 0 1008 -1.2 95
2018-05-09 05:00:00 15 8 Oeste 13 Oeste 0 1008.4 -1.3 94
2018-05-09 04:00:00 15.3 9 Oeste 11 Oeste 0 1009 -1.2 92
2018-05-09 03:00:00 15.8 6 Oeste 13 Sudoeste 0 1009.2 -0.6 90
2018-05-09 02:00:00 15.1 4 Noroeste 11 Oeste 0 1009.7 0.2 91
2018-05-09 01:00:00 15.8 4 Norte 13 Sudoeste 0 1010.2 0.7 90
2018-05-09 00:00:00 16.1 9 Sudoeste 15 Sudoeste 0 1009.8 0.4 90
2018-05-08 23:00:00 16.1 12 Sudoeste 15 Sudoeste 0 1009.5 0.4 90
2018-05-08 22:00:00 16.2 10 Sudoeste 17 Sudoeste 0 1009.5 0.2 88
2018-05-08 21:00:00 16.7 12 Sudoeste 21 Sudoeste 0 1009.4 0.1 85
2018-05-08 20:00:00 17.5 13 Sudoeste 26 Sudoeste 0 1009.1 -0.2 81
2018-05-08 19:00:00 18.3 18 Sudoeste 28 Sudoeste 0 1009.3 -0.4 76
2018-05-08 18:00:00 18.9 18 Sudoeste 26 Sudoeste 0 1009.3 -0.9 74
2018-05-08 17:00:00 19.2 17 Sudoeste 26 Sudoeste 0 1009.3 -1.4 71
2018-05-08 16:00:00 19.5 17 Sudoeste 28 Sudoeste 0 1009.7 -1.3 71
2018-05-08 15:00:00 19.4 18 Sudoeste 26 Sudoeste 0 1010.2 -1.1 71
2018-05-08 14:00:00 19.4 18 Sudoeste 28 Sur 0 1010.7 -0.5 70
2018-05-08 13:00:00 19.2 20 Sudoeste 26 Sur 0 1011 -0.2 71
2018-05-08 12:00:00 18.7 16 Sudoeste 24 Sur 0 1011.3 0.5 73
2018-05-08 11:00:00 18.4 16 Sudoeste 22 Sudoeste 0 1011.2 0.8 75
2018-05-08 10:00:00 17.6 11 Sur 17 Sur 0 1011.2 0.9 79
2018-05-08 09:00:00 15 0 Calma 8 Norte 0 1010.8 0.3 89
2018-05-08 08:00:00 13.1 4 Norte 9 Norte 0 1010.4 -0.6 93
2018-05-08 07:00:00 11.1 3 Este 5 Noroeste 0 1010.3 -1 96
2018-05-08 06:00:00 11.8 6 Noroeste 9 Norte 0 1010.5 -1.2 94
2018-05-08 05:00:00 12.2 0 Calma 11 Norte 0 1011 -1.1 93
2018-05-08 04:00:00 13.6 0 Calma 5 Este 0 1011.3 -1.1 93
2018-05-08 03:00:00 14.4 2 Oeste 8 Noroeste 0 1011.7 -0.8 91
2018-05-08 02:00:00 13.5 0 Calma 8 Noroeste 0 1012.1 0 93
2018-05-08 01:00:00 12.8 0 Calma 11 Norte 0 1012.4 0.3 92
2018-05-08 00:00:00 14 6 Norte 13 Norte 0 1012.5 0.7 90
2018-05-07 23:00:00 14.1 0 Calma 8 Sudeste 0 1012.1 0.6 91
2018-05-07 22:00:00 14.7 4 Este 9 Este 0 1012.1 0.6 88
2018-05-07 21:00:00 15.5 6 Este 13 Este 0 1011.8 0 86
2018-05-07 20:00:00 17 9 Nordeste 17 Este 0 1011.5 -0.9 79
2018-05-07 19:00:00 17.6 12 Este 18 Este 0 1011.5 -1.8 76
2018-05-07 18:00:00 18.3 12 Este 21 Este 0 1011.8 -2.2 73
2018-05-07 17:00:00 18.9 13 Este 22 Norte 0 1012.4 -1.9 72
2018-05-07 16:00:00 18.4 12 Este 18 Este 0 1013.3 -1.5 75
2018-05-07 15:00:00 19.4 12 Este 21 Este 0 1014 -1 72
2018-05-07 14:00:00 18.9 12 Este 18 Este 0 1014.3 -0.7 73
2018-05-07 13:00:00 17.8 10 Este 17 Este 0 1014.8 0.2 80
2018-05-07 12:00:00 17.1 6 Este 13 Este 0 1015 0.7 83
2018-05-07 11:00:00 16.7 6 Este 17 Este 0 1015 1.1 83
2018-05-07 10:00:00 16.2 9 Este 18 Este 0 1014.6 1.1 87
2018-05-07 09:00:00 15.8 9 Norte 26 Norte 0 1014.3 0.6 90
2018-05-07 08:00:00 15 9 Nordeste 18 Nordeste 0 1013.9 0.1 93
2018-05-07 07:00:00 14.3 12 Nordeste 15 Norte 0 1013.5 -0.6 94
2018-05-07 06:00:00 11.3 3 Noroeste 8 Norte 0 1013.7 -0.7 94
2018-05-07 05:00:00 11.9 -- -- -- -- 0 1013.8 -0.8 92
2018-05-07 04:00:00 12.3 3 Noroeste 9 Noroeste 0 1014.1 -0.7 91
2018-05-07 03:00:00 11.8 -- -- -- -- 0 1014.4 -0.5 92
2018-05-07 02:00:00 13.5 4 Oeste 8 Oeste 0 1014.6 -0.5 88
2018-05-07 01:00:00 13.1 4 Norte 15 Noroeste 0 1014.8 -0.1 89
2018-05-07 00:00:00 14.2 8 Norte 13 Norte 0 1014.9 0.4 84
2018-05-06 23:00:00 15 7 Norte 11 Norte 0 1015.1 0.9 81
2018-05-06 22:00:00 16 7 Oeste 11 Norte 0 1014.9 0.6 88
2018-05-06 21:00:00 16.7 7 Sudoeste 11 Sudoeste 0 1014.5 -0.2 85
2018-05-06 20:00:00 18.4 9 Sudoeste 17 Sudoeste 0 1014.2 -0.4 76
2018-05-06 19:00:00 19.6 11 Sudoeste 15 Sudoeste 0 1014.3 -0.7 69
2018-05-06 18:00:00 19.4 6 Nordeste 18 Este 0 1014.7 -0.5 68
2018-05-06 17:00:00 18.9 12 Este 22 Este 0 1014.6 -0.6 72
2018-05-06 16:00:00 18.8 12 Este 33 Este 0 1015 -0.5 69
2018-05-06 15:00:00 19.7 22 Este 35 Este 0 1015.2 -0.3 64
2018-05-06 14:00:00 21.6 18 Este 32 Este 0 1015.2 -0.1 60
2018-05-06 13:00:00 21.5 15 Este 26 Nordeste 0 1015.5 0.4 60
2018-05-06 12:00:00 21 17 Norte 28 Norte 0 1015.5 0.4 61
2018-05-06 11:00:00 20.2 13 Nordeste 28 Nordeste 0 1015.3 0.2 64
2018-05-06 10:00:00 19.6 14 Norte 22 Norte 0 1015.1 0.2 68
2018-05-06 09:00:00 17.9 10 Norte 17 Norte 0 1015.1 0.6 74
2018-05-06 08:00:00 16.1 8 Norte 18 Norte 0 1015.1 0.2 81
2018-05-06 07:00:00 13.9 8 Norte 15 Nordeste 0 1014.9 0.1 91
2018-05-06 06:00:00 12.7 0 Calma 15 Nordeste 0 1014.5 -0.5 91
2018-05-06 05:00:00 13.1 3 Norte 9 Norte 0 1014.9 -0.3 93
2018-05-06 04:00:00 12.8 4 Este 8 Este 0 1014.8 -0.5 94
2018-05-06 03:00:00 13 5 Sudoeste 9 Noroeste 0 1015 -0.5 92
2018-05-06 02:00:00 14.1 2 Oeste 11 Norte 0 1015.2 -0.1 91
2018-05-06 01:00:00 13.2 0 Calma 11 Norte 0 1015.3 0.2 93
2018-05-06 00:00:00 14.7 5 Norte 13 Norte 0 1015.5 0.9 89
2018-05-05 23:00:00 15.3 10 Norte 22 Norte 0 1015.3 1.2 88
2018-05-05 22:00:00 15.8 8 Norte 18 Norte 0 1015.1 1.2 85
2018-05-05 21:00:00 15.6 5 Noroeste 17 Norte 0 1014.6 0.3 83
2018-05-05 20:00:00 16.2 8 Oeste 21 Nordeste 0 1014.1 -0.2 82
2018-05-05 19:00:00 17 12 Norte 22 Norte 0.2 1013.9 -0.4 79
2018-05-05 18:00:00 16.6 10 Norte 18 Norte 0.5 1014.3 -0.1 83
2018-05-05 17:00:00 17.1 6 Nordeste 11 Nordeste 0.2 1014.3 0 74
2018-05-05 16:00:00 16.2 5 Sur 11 Sudoeste 0 1014.3 -0.2 82
2018-05-05 15:00:00 16.1 7 Sudoeste 9 Sudoeste 0 1014.4 0.2 79
2018-05-05 14:00:00 16 3 Sur 8 Sur 0.4 1014.3 0.4 84
2018-05-05 13:00:00 16.4 4 Nordeste 13 Norte 0.1 1014.5 1.1 74
2018-05-05 12:00:00 16.9 11 Norte 17 Norte 0.1 1014.2 1 69
2018-05-05 11:00:00 17.2 10 Norte 24 Noroeste 0 1013.9 1 61
2018-05-05 10:00:00 16.7 6 Oeste 18 Oeste 0 1013.4 0.8 63
2018-05-05 09:00:00 16.2 5 Oeste 17 Oeste 0 1013.2 0.7 67
2018-05-05 08:00:00 15.8 5 Oeste 15 Noroeste 0 1012.9 0.4 67
2018-05-05 07:00:00 15.4 10 Oeste 21 Oeste 0 1012.6 0 66
2018-05-05 06:00:00 14.7 5 Sudoeste 13 Noroeste 0 1012.5 -0.6 74
2018-05-05 05:00:00 15.3 8 Noroeste 18 Noroeste 0 1012.5 -0.7 71
2018-05-05 04:00:00 15.3 9 Noroeste 15 Noroeste 0 1012.6 -0.8 66
2018-05-05 03:00:00 14.7 6 Noroeste 11 Noroeste 0 1013.1 -0.2 67
2018-05-05 02:00:00 15 5 Oeste 11 Oeste 0 1013.2 -0.2 73
2018-05-05 01:00:00 14.8 5 Oeste 17 Oeste 0 1013.4 0.5 79
2018-05-05 00:00:00 15 5 Oeste 9 Noroeste 0 1013.3 0.8 78
2018-05-04 23:00:00 15.1 3 Este 11 Noroeste 0.1 1013.4 1.6 75
2018-05-04 22:00:00 15 6 Oeste 21 Noroeste 0 1012.9 1.1 76
2018-05-04 21:00:00 15 0 Calma 11 Norte 0 1012.5 0.9 72
2018-05-04 20:00:00 15.6 8 Norte 17 Nordeste 0 1011.8 0.4 68
2018-05-04 19:00:00 16.1 11 Nordeste 17 Nordeste 0 1011.8 0.7 74
2018-05-04 18:00:00 17.1 3 Este 11 Sudoeste 0 1011.6 0.4 69
2018-05-04 17:00:00 16.7 9 Sudoeste 17 Sudoeste 0 1011.4 0.1 71
2018-05-04 16:00:00 18.1 9 Sudoeste 30 Norte 0 1011.1 0 64
2018-05-04 15:00:00 19 13 Nordeste 32 Norte 0 1011.2 0.3 57
2018-05-04 14:00:00 18.2 16 Este 30 Sudeste 0 1011.3 0.5 63
2018-05-04 13:00:00 18.6 10 Sudeste 17 Este 0 1011.1 0.7 65
2018-05-04 12:00:00 17.9 7 Sur 13 Sur 0 1010.9 0.7 68
2018-05-04 11:00:00 17.2 10 Este 15 Este 0 1010.8 1.1 69
2018-05-04 10:00:00 17.4 6 Nordeste 18 Nordeste 0 1010.4 1.4 66
2018-05-04 09:00:00 15.1 7 Este 21 Norte 0 1010.2 1.4 75
2018-05-04 08:00:00 13.9 7 Nordeste 11 Norte 0 1009.7 0.7 70
2018-05-04 07:00:00 10.9 3 Sur 5 Sur 0 1009 -0.3 84
2018-05-04 06:00:00 11.2 3 Oeste 9 Norte 0 1008.8 -0.4 82
2018-05-04 05:00:00 11.3 3 Norte 8 Nordeste 0 1009 -0.7 77
2018-05-04 04:00:00 11.5 2 Este 13 Noroeste 0 1009.3 -0.8 75
2018-05-04 03:00:00 11.5 3 Nordeste 11 Nordeste 0 1009.2 -1.1 78
2018-05-04 02:00:00 12.9 6 Norte 11 Nordeste 0 1009.7 -0.6 77
2018-05-04 01:00:00 13.8 7 Norte 9 Norte 0 1010.1 0.3 73
2018-05-04 00:00:00 14.7 7 Norte 11 Norte 0 1010.3 1 71
2018-05-03 23:00:00 14.4 5 Este 18 Oeste 0 1010.3 1.5 75
2018-05-03 22:00:00 14.4 9 Oeste 15 Sudoeste 0 1009.8 1.6 86
2018-05-03 21:00:00 15.3 11 Sudoeste 17 Sudoeste 0 1009.3 1.8 82
2018-05-03 20:00:00 17.6 13 Sudoeste 24 Sudoeste 0 1008.8 1 68
2018-05-03 19:00:00 18.7 16 Sur 26 Sudoeste 0 1008.2 -0.2 61
2018-05-03 18:00:00 19.6 14 Este 22 Nordeste 0 1007.5 -1.4 61
2018-05-03 17:00:00 20.3 12 Nordeste 30 Nordeste 0 1007.8 -1 45
2018-05-03 16:00:00 21 12 Norte 33 Noroeste 0 1008.4 -0.7 43
2018-05-03 15:00:00 21.3 15 Norte 39 Noroeste 0 1008.9 -0.2 44
2018-05-03 14:00:00 20.3 28 Norte 42 Norte 0 1008.8 0.2 48
2018-05-03 13:00:00 19.9 27 Norte 42 Norte 0 1009.1 0.5 50
2018-05-03 12:00:00 20.1 23 Norte 42 Norte 0 1009.1 0.6 53
2018-05-03 11:00:00 19.6 21 Norte 37 Norte 0 1008.6 0.2 53
2018-05-03 10:00:00 19.2 15 Norte 32 Norte 0 1008.6 0.5 56
2018-05-03 09:00:00 18 15 Norte 28 Norte 0 1008.5 0.6 64
2018-05-03 08:00:00 16.9 13 Norte 21 Norte 0 1008.4 0.2 61
2018-05-03 07:00:00 15.7 13 Norte 26 Noroeste 0 1008.1 -0.1 62
2018-05-03 06:00:00 16.6 23 Norte 39 Norte 0 1007.9 -0.5 57
2018-05-03 05:00:00 16.7 23 Noroeste 35 Norte 0 1008.2 -1 56
2018-05-03 04:00:00 16 18 Noroeste 26 Noroeste 0 1008.2 -1.5 58
2018-05-03 03:00:00 12.8 3 Norte 11 Noroeste 0 1008.4 -1.7 77
2018-05-03 02:00:00 14.1 4 Norte 17 Sudoeste 0 1009.2 -1.2 82
2018-05-03 01:00:00 15.2 13 Sudoeste 21 Sudoeste 0 1009.7 -0.7 80
2018-05-03 00:00:00 15.8 14 Sudoeste 26 Sudoeste 0 1010.1 -0.2 74
2018-05-02 23:00:00 16 20 Sudoeste 30 Sudoeste 0 1010.4 0.1 73
2018-05-02 22:00:00 16.1 21 Sudoeste 30 Sudoeste 0 1010.4 0.3 74
2018-05-02 21:00:00 16 13 Sudoeste 26 Sudoeste 0 1010.3 0.1 76
2018-05-02 20:00:00 16.6 20 Sudoeste 30 Sudoeste 0 1010.3 0 75
2018-05-02 19:00:00 17.5 19 Sudoeste 30 Sudoeste 0 1010.1 -0.8 66
2018-05-02 18:00:00 17.6 22 Sudoeste 30 Sudoeste 0 1010.2 -1 65
2018-05-02 17:00:00 18.3 21 Sudoeste 30 Sur 0 1010.3 -1 60
2018-05-02 16:00:00 19.1 21 Sudoeste 35 Sudoeste 0 1010.9 -0.5 51
2018-05-02 15:00:00 19.8 13 Oeste 39 Oeste 0 1011.2 -0.4 39
2018-05-02 14:00:00 18.6 29 Sudoeste 39 Sudoeste 0 1011.3 -0.4 52
2018-05-02 13:00:00 18.2 28 Sudoeste 42 Sudoeste 0 1011.4 -0.4 55
2018-05-02 12:00:00 17.7 27 Sudoeste 37 Sudoeste 0 1011.6 -0.3 59
2018-05-02 11:00:00 16.9 23 Sudoeste 33 Sudoeste 0 1011.7 0 63
2018-05-02 10:00:00 16.1 23 Oeste 33 Sudoeste 0 1011.8 0.1 62
2018-05-02 09:00:00 14.6 17 Oeste 24 Oeste 0 1011.9 0.1 69
2018-05-02 08:00:00 10.6 8 Oeste 18 Noroeste 0 1011.7 -0.2 86
2018-05-02 07:00:00 8.9 9 Noroeste 13 Noroeste 0 1011.7 -0.4 91
2018-05-02 06:00:00 9.2 4 Noroeste 11 Noroeste 0 1011.8 -0.4 90
2018-05-02 05:00:00 9.7 10 Noroeste 15 Oeste 0 1011.9 -0.3 89
2018-05-02 04:00:00 8.6 0 Calma 4 Noroeste 0 1012.1 -0.2 93
2018-05-02 03:00:00 8.9 3 Noroeste 13 Noroeste 0 1012.2 -0.2 89
2018-05-02 02:00:00 9.1 6 Oeste 9 Noroeste 0 1012.2 -0.2 89
2018-05-02 01:00:00 9.9 6 Noroeste 17 Noroeste 0 1012.3 0.2 87
2018-05-02 00:00:00 10.1 4 Oeste 18 Noroeste 0 1012.4 1.2 85
2018-05-01 23:00:00 10.7 11 Noroeste 17 Oeste 0 1012.4 1.5 84
2018-05-01 22:00:00 11.6 9 Noroeste 22 Noroeste 0 1012.1 1.4 81
2018-05-01 21:00:00 13.4 9 Norte 28 Norte 0 1011.2 0.4 72
2018-05-01 20:00:00 15 15 Norte 26 Nordeste 0 1010.9 0.2 62
2018-05-01 19:00:00 16 19 Nordeste 28 Norte 0 1010.7 -0.1 59
2018-05-01 18:00:00 16.4 19 Norte 32 Norte 0 1010.8 -0.3 56
2018-05-01 17:00:00 15.9 21 Norte 35 Norte 0 1010.7 -0.8 57
2018-05-01 16:00:00 16.3 19 Norte 37 Norte 0 1010.8 -1 65
2018-05-01 15:00:00 15.2 22 Norte 30 Norte 0 1011.1 -0.2 72
2018-05-01 14:00:00 12.4 5 Norte 39 Norte 4.9 1011.5 0.5 87
2018-05-01 13:00:00 11.3 28 Norte 41 Norte 2 1011.8 1.3 86
2018-05-01 12:00:00 14.4 17 Nordeste 42 Norte 12.1 1011.3 0.8 79
2018-05-01 11:00:00 15.1 22 Norte 39 Norte 0 1011 1.1 67
2018-05-01 10:00:00 16.4 18 Nordeste 30 Nordeste 0 1010.5 0.9 69
2018-05-01 09:00:00 16 12 Norte 22 Norte 0 1010.5 0.9 65
2018-05-01 08:00:00 14.4 5 Noroeste 11 Noroeste 0 1009.9 0.1 67
2018-05-01 07:00:00 14 0 Calma 18 Oeste 0 1009.6 -0.7 62
2018-05-01 06:00:00 14.9 13 Oeste 28 Oeste 0 1009.6 -0.8 54
2018-05-01 05:00:00 15.2 15 Oeste 26 Oeste 0 1009.8 -1.5 50
2018-05-01 04:00:00 15 8 Oeste 22 Oeste 0 1010.3 -1.2 53
2018-05-01 03:00:00 14.5 9 Oeste 26 Oeste 0 1010.4 -1.3 69
2018-05-01 02:00:00 14.6 17 Oeste 26 Sudoeste 0 1011.3 -0.4 74
2018-05-01 01:00:00 13.9 6 Noroeste -- -- 0 1011.5 -0.2 71
2018-05-01 00:00:00 13.8 5 Oeste 13 Noroeste 0 1011.7 0.5 70
2018-04-30 23:00:00 14.1 4 Noroeste 9 Norte 0 1011.7 0.6 69
2018-04-30 22:00:00 14.1 6 Nordeste 11 Nordeste 0 1011.7 0.3 69
2018-04-30 21:00:00 14.6 6 Nordeste 18 Este 0 1011.2 -0.3 66
2018-04-30 20:00:00 15.6 11 Este 22 Este 0 1011.1 -0.3 62
2018-04-30 19:00:00 16.6 14 Nordeste 21 Este 0 1011.4 -0.4 55
2018-04-30 18:00:00 16.9 15 Este 24 Sudeste 0 1011.5 -1 54
2018-04-30 17:00:00 19 15 Este 22 Este 0 1011.4 -1.5 42
2018-04-30 16:00:00 18.9 13 Este 22 Sudeste 0 1011.8 -1.4 39
2018-04-30 15:00:00 18.8 15 Sudeste 22 Sudeste 0 1012.5 -0.8 40
2018-04-30 14:00:00 18.2 10 Noroeste 26 Noroeste 0 1012.9 -0.6 36
2018-04-30 13:00:00 18.2 16 Noroeste 28 Noroeste 0 1013.2 0 35
2018-04-30 12:00:00 17.7 22 Noroeste 37 Noroeste 0 1013.3 -0.3 38
2018-04-30 11:00:00 17.6 24 Noroeste 39 Noroeste 0 1013.5 0.1 41
2018-04-30 10:00:00 16.6 25 Noroeste 39 Oeste 0 1013.2 0.7 47
2018-04-30 09:00:00 15.6 20 Oeste 30 Noroeste 0 1013.6 1.3 54
2018-04-30 08:00:00 13.8 9 Oeste 30 Noroeste 0 1013.4 0.9 61
2018-04-30 07:00:00 14 19 Noroeste 30 Oeste 0 1012.5 0 59
2018-04-30 06:00:00 13.7 10 Oeste 22 Oeste 0 1012.3 -0.4 62
2018-04-30 05:00:00 14.6 16 Oeste 28 Oeste 0 1012.5 -0.8 56
2018-04-30 04:00:00 14.6 12 Oeste 26 Oeste 0 1012.5 -0.9 54
2018-04-30 03:00:00 15.6 18 Oeste 35 Oeste 0 1012.7 -0.7 47
2018-04-30 02:00:00 15 15 Oeste 32 Oeste 0 1013.3 0.2 54
2018-04-30 01:00:00 15 16 Sudoeste 24 Sudoeste 0 1013.4 1.1 90
2018-04-30 00:00:00 15 14 Sudoeste 30 Sudoeste 0 1013.4 2.4 86
2018-04-29 23:00:00 15.3 21 Sudoeste 35 Sudoeste 0 1013.1 2.7 85
2018-04-29 22:00:00 15.6 30 Sudoeste 39 Sudoeste 0 1012.3 2.6 82
2018-04-29 21:00:00 15.8 15 Sudoeste 41 Sudoeste 0 1011 1.5 65
2018-04-29 20:00:00 17.5 30 Oeste 45 Sudoeste 0 1010.4 1.5 62
2018-04-29 19:00:00 18.6 34 Sudoeste 48 Oeste 0 1009.7 1 54
2018-04-29 18:00:00 18.8 32 Sudoeste 45 Sudoeste 0 1009.5 0.8 60
2018-04-29 17:00:00 18.7 26 Sudoeste 46 Sudoeste 0 1008.9 0.2 65
2018-04-29 16:00:00 19 32 Sudoeste 52 Sudoeste 0 1008.7 0.4 60
2018-04-29 15:00:00 19.7 38 Sudoeste 54 Sudoeste 0 1008.7 0.4 46
2018-04-29 14:00:00 19.3 30 Sudoeste 52 Oeste 0 1008.7 1.1 53
2018-04-29 13:00:00 19.1 26 Sudoeste 37 Sudoeste 0 1008.3 1.4 51
2018-04-29 12:00:00 17.7 24 Sudoeste 35 Sudoeste 0 1008.3 2.6 56
2018-04-29 11:00:00 18.5 24 Oeste 35 Oeste 0 1007.6 1.8 56
2018-04-29 10:00:00 17.5 23 Oeste 41 Sudoeste 0 1006.9 1.8 61
2018-04-29 09:00:00 16.8 32 Sudoeste 58 Sudoeste 0 1005.7 0.6 79
2018-04-29 08:00:00 16.2 36 Sudoeste 54 Sudoeste 0 1005.8 0.9 74
2018-04-29 07:00:00 15.9 23 Sudoeste 39 Sudoeste 1.5 1005.1 0 82
2018-04-29 06:00:00 15.9 26 Sudoeste 42 Sudoeste 0.9 1005.1 -0.7 84
2018-04-29 05:00:00 16.7 14 Sudoeste 35 Sudoeste 0 1004.9 -1.3 84
2018-04-29 04:00:00 17 22 Sur 41 Sur 0 1005.1 -1.7 79
2018-04-29 03:00:00 17.1 23 Sur 37 Sur 0 1005.8 -1.2 77
2018-04-29 02:00:00 16.9 18 Sur 37 Sur 0 1006.2 -0.7 78
2018-04-29 01:00:00 16.5 14 Sur 26 Sudeste 0 1006.8 0 82
2018-04-29 00:00:00 16.7 14 Sur 24 Sur 0 1007 0.2 82
2018-04-28 23:00:00 16.2 11 Sur 22 Sur 0 1006.9 0 85
2018-04-28 22:00:00 16.1 14 Sur 22 Sur 0 1006.8 -0.4 90
2018-04-28 21:00:00 16.4 10 Sur 22 Sudoeste 0 1006.8 -0.9 91
2018-04-28 20:00:00 16.6 11 Sur 22 Sur 0 1006.9 -1 89
2018-04-28 19:00:00 17 14 Sur 26 Sudoeste 0 1007.2 -1.1 88
2018-04-28 18:00:00 17.8 15 Sur 24 Sur 0 1007.7 -1 85
2018-04-28 17:00:00 17.8 15 Sur 26 Sur 0 1007.9 -1.3 85
2018-04-28 16:00:00 18.1 15 Sudoeste 26 Sur 0 1008.3 -1.3 84
2018-04-28 15:00:00 19 13 Sur 28 Sudoeste 0 1008.7 -1.3 81
2018-04-28 14:00:00 19.4 16 Sudoeste 24 Sudoeste 0 1009.2 -0.9 77
2018-04-28 13:00:00 18.6 14 Sur 22 Sudoeste 0 1009.6 -0.4 80
2018-04-28 12:00:00 18.4 17 Sudoeste 22 Sudoeste 0 1010 0.2 81
2018-04-28 11:00:00 18.4 15 Sudoeste 22 Sudoeste 0 1010.1 0.4 81
2018-04-28 10:00:00 18.2 14 Sur 22 Sur 0 1010 0.7 81
2018-04-28 09:00:00 17.2 10 Sur 18 Sur 0 1009.8 0.4 85
2018-04-28 08:00:00 16.4 13 Sur 18 Sur 0 1009.7 0.3 88
2018-04-28 07:00:00 15.8 10 Sur 21 Sur 0 1009.3 -0.4 91
2018-04-28 06:00:00 15.6 11 Sur 21 Sur 0 1009.4 -0.7 91
2018-04-28 05:00:00 15.7 13 Sur 24 Sur 0 1009.4 -1.4 91
2018-04-28 04:00:00 15.1 8 Sur 15 Sur 0 1009.7 -1.4 93
2018-04-28 03:00:00 15.4 9 Sur 18 Sur 0 1010.1 -1.2 93
2018-04-28 02:00:00 15.3 9 Sur 15 Sur 0 1010.8 -0.7 94
2018-04-28 01:00:00 14.7 4 Sudeste 11 Sur 0 1011.1 0 93
2018-04-28 00:00:00 14.2 4 Nordeste 8 Sudoeste 0 1011.3 0.9 93
2018-04-27 23:00:00 14.9 5 Sur 11 Este 0 1011.5 1.3 93
2018-04-27 22:00:00 15.5 9 Sudoeste 21 Sur 0 1011.1 0.6 92
2018-04-27 21:00:00 16 13 Sur 24 Sur 0 1010.4 -0.1 90
2018-04-27 20:00:00 16.5 18 Sudoeste 28 Sudoeste 0 1010.2 -0.3 89
2018-04-27 19:00:00 17.1 21 Sudoeste 35 Sudoeste 0 1010.5 -0.3 87
2018-04-27 18:00:00 17.2 28 Sudoeste 37 Sur 0 1010.5 -0.5 86
2018-04-27 17:00:00 17.9 24 Sudoeste 33 Sur 0 1010.5 -0.9 83
2018-04-27 16:00:00 18.1 22 Sur 30 Sur 0 1010.8 -0.9 81
2018-04-27 15:00:00 19.3 21 Sudoeste 30 Sur 0 1011 -0.9 76
2018-04-27 14:00:00 19.3 21 Sudoeste 30 Sudoeste 0 1011.4 -0.6 74
2018-04-27 13:00:00 19.2 21 Sudoeste 32 Sudoeste 0 1011.7 -0.1 73
2018-04-27 12:00:00 18.7 22 Sudoeste 32 Sudoeste 0 1011.9 0.1 76
2018-04-27 11:00:00 18.2 23 Sudoeste 30 Sudoeste 0 1012 0.2 77
2018-04-27 10:00:00 18.1 15 Sudoeste 26 Sudoeste 0 1011.8 0 71
2018-04-27 09:00:00 16.3 9 Sudoeste 13 Sudoeste 0 1011.8 0 88
2018-04-27 08:00:00 12.1 0 Calma 5 Oeste 0 1011.8 -0.2 94
2018-04-27 07:00:00 10.6 0 Calma 9 Noroeste 0 1011.8 -0.5 92
2018-04-27 06:00:00 11.3 0 Calma 5 Oeste 0 1011.8 -0.8 90
2018-04-27 05:00:00 11.1 3 Noroeste 9 Noroeste 0 1012 -1.4 89
2018-04-27 04:00:00 12.1 8 Norte 9 Norte 0 1012.3 -1.6 87
2018-04-27 03:00:00 12.2 6 Norte 11 Oeste 0 1012.6 -1.4 86
2018-04-27 02:00:00 12.6 4 Oeste 8 Oeste 0 1013.4 -0.9 84
2018-04-27 01:00:00 13.8 7 Sudoeste 11 Sudoeste 0 1013.9 -0.3 85
2018-04-27 00:00:00 14.6 5 Oeste 11 Noroeste 0 1014 0.2 82
2018-04-26 23:00:00 14.8 2 Oeste 11 Noroeste 0 1014.3 0.7 79
2018-04-26 22:00:00 15 0 Calma 11 Noroeste 0 1014.2 0.5 85
2018-04-26 21:00:00 16.2 4 Nordeste 13 Este 0 1013.8 -0.1 78
2018-04-26 20:00:00 18.4 6 Este 18 Nordeste 0 1013.6 -0.2 68
2018-04-26 19:00:00 18.3 13 Nordeste 26 Este 0 1013.7 -0.2 71
2018-04-26 18:00:00 18.6 17 Este 28 Norte 0 1013.9 -0.8 69
2018-04-26 17:00:00 19.5 18 Norte 28 Nordeste 0 1013.8 -1 64
2018-04-26 16:00:00 19.8 12 Este 26 Este 0 1013.9 -1 64
2018-04-26 15:00:00 19.3 17 Este 33 Este 0 1014.7 0 67
2018-04-26 14:00:00 19.5 22 Este 32 Este 0 1014.8 0.8 65
2018-04-26 13:00:00 19.4 19 Este 32 Este 0 1014.9 0.7 74
2018-04-26 12:00:00 18.8 21 Nordeste 30 Este 0 1014.7 0.7 77
2018-04-26 11:00:00 18.5 21 Nordeste 39 Nordeste 0 1014 0 75
2018-04-26 10:00:00 18.2 19 Nordeste 33 Nordeste 0 1014.2 0.9 79
2018-04-26 09:00:00 17.6 14 Nordeste 28 Nordeste 0 1014 1.3 83
2018-04-26 08:00:00 17.4 19 Nordeste 35 Nordeste 0 1014 1.3 79
2018-04-26 07:00:00 17.4 21 Nordeste 39 Nordeste 0 1013.3 1 79
2018-04-26 06:00:00 17.2 17 Nordeste 33 Nordeste 0 1012.7 -0.3 74
2018-04-26 05:00:00 17 12 Nordeste 18 Nordeste 0 1012.7 -0.9 79
2018-04-26 04:00:00 17.6 11 Nordeste 18 Nordeste 0 1012.3 -1.8 72
2018-04-26 03:00:00 15.9 5 Norte 8 Norte 0 1013 -1.7 89
2018-04-26 02:00:00 16.2 6 Norte 11 Sudeste 0 1013.6 -1.1 87
2018-04-26 01:00:00 16.7 0 Calma 13 Sudeste 0 1014.1 -0.1 84
2018-04-26 00:00:00 17 6 Sur 13 Sudeste 0 1014.7 0.8 82
2018-04-25 23:00:00 17.3 9 Nordeste 18 Norte 0 1014.7 1.6 78
2018-04-25 22:00:00 18.2 16 Norte 26 Norte 0 1014.2 2 71
2018-04-25 21:00:00 17.7 10 Nordeste 21 Nordeste 0 1013.9 1.3 86
2018-04-25 20:00:00 18.6 8 Nordeste 26 Noroeste 0 1013.1 -0.2 82
2018-04-25 19:00:00 17.9 4 Este 13 Este 0 1012.2 -1.5 90
2018-04-25 18:00:00 17.2 11 Este 30 Este 0.1 1012.6 -2.5 92
2018-04-25 17:00:00 17.5 16 Este 26 Norte 0 1013.3 -0.7 90
2018-04-25 16:00:00 17.2 16 Nordeste 30 Nordeste 0 1013.7 -1.3 91
2018-04-25 15:00:00 16.6 17 Nordeste 30 Este 0.6 1015.1 0.7 92
2018-04-25 14:00:00 16.7 16 Nordeste 33 Este 0.6 1014 -0.4 89
2018-04-25 13:00:00 17.3 18 Nordeste 37 Nordeste 0.3 1015 1.3 80
2018-04-25 12:00:00 19.7 24 Nordeste 39 Nordeste 0 1014.4 1.3 58
2018-04-25 11:00:00 20.3 27 Nordeste 41 Nordeste 0 1014.4 1.2 50
2018-04-25 10:00:00 20.6 23 Nordeste 33 Nordeste 0 1013.7 0.8 46
2018-04-25 09:00:00 19.3 18 Nordeste 32 Nordeste 0 1013.1 0.5 54
2018-04-25 08:00:00 17.7 11 Nordeste 28 Nordeste 0 1013.2 0.7 61
2018-04-25 07:00:00 18.7 19 Nordeste 28 Nordeste 0 1012.9 0.2 55
2018-04-25 06:00:00 18.6 13 Norte 30 Norte 0 1012.6 -0.9 51
2018-04-25 05:00:00 18.7 19 Nordeste 30 Nordeste 0 1012.5 -1.2 49
2018-04-25 04:00:00 18.9 22 Nordeste 32 Nordeste 0 1012.7 -2.3 48
2018-04-25 03:00:00 18.7 17 Nordeste 32 Norte 0 1013.5 -0.6 50
2018-04-25 02:00:00 18.6 20 Nordeste 28 Nordeste 0 1013.7 -0.4 52
2018-04-25 01:00:00 18.8 17 Nordeste 28 Nordeste 0 1015 0.4 50
2018-04-25 00:00:00 18.7 20 Nordeste 30 Nordeste 0 1014.1 0.3 51
2018-04-24 23:00:00 18.7 20 Nordeste 32 Nordeste 0 1014.1 -0.1 53
2018-04-24 22:00:00 18.7 17 Nordeste 32 Nordeste 0 1014.6 0.5 53
2018-04-24 21:00:00 19.3 21 Nordeste 37 Nordeste 0 1013.8 0.6 49
2018-04-24 20:00:00 19.7 19 Nordeste 37 Nordeste 0 1014.2 0.5 51
2018-04-24 19:00:00 20.6 23 Nordeste 52 Nordeste 0 1014.1 -0.1 49
2018-04-24 18:00:00 21.7 31 Nordeste 52 Nordeste 0 1013.2 -1.4 46
2018-04-24 17:00:00 22.5 32 Nordeste 50 Nordeste 0 1013.7 -1.4 41
2018-04-24 16:00:00 22.4 36 Nordeste 52 Nordeste 0 1014.2 -1.6 45
2018-04-24 15:00:00 22 31 Nordeste 52 Nordeste 0 1014.6 -1.1 42
2018-04-24 14:00:00 21.1 30 Nordeste 54 Nordeste 0 1015.1 -- 46
2018-04-24 13:00:00 20.3 34 Nordeste 50 Nordeste 0 1015.8 -0.5 50
2018-04-24 12:00:00 21.7 34 Nordeste 52 Nordeste 0 1015.7 -1.4 42
2018-04-24 11:00:00 22 28 Nordeste 41 Nordeste 0 -- -- 43
2018-04-24 10:00:00 19.9 26 Nordeste 37 Nordeste 0 1016.3 1.2 54
2018-04-24 09:00:00 19.1 10 Nordeste 21 Oeste 0 1017.1 2.5 52
2018-04-24 08:00:00 18.6 15 Norte 32 Nordeste 0 1016.5 1.8 53
2018-04-24 07:00:00 17.3 20 Norte 30 Nordeste 0 1015.1 0.2 62
2018-04-24 06:00:00 17.3 20 Nordeste 39 Nordeste 0 1014.6 -0.3 60
2018-04-24 05:00:00 18 23 Nordeste 39 Nordeste 0 1014.7 -0.7 53
2018-04-24 04:00:00 18.6 24 Nordeste 39 Nordeste 0 1014.9 -0.6 50
2018-04-24 03:00:00 18.6 26 Nordeste 41 Nordeste 0 1014.9 -0.5 52
2018-04-24 02:00:00 17.6 13 Nordeste 32 Nordeste 0 1015.4 -0.4 58
2018-04-24 01:00:00 18.3 18 Nordeste 32 Nordeste 0 1015.5 -0.3 56
2018-04-24 00:00:00 18.2 21 Nordeste 32 Nordeste 0 1015.4 -0.1 61
2018-04-23 23:00:00 18.5 24 Nordeste 32 Nordeste 0 1015.8 0.8 58
2018-04-23 22:00:00 18.1 22 Nordeste 33 Nordeste 0 1015.8 0.8 61
2018-04-23 21:00:00 18.7 18 Nordeste 28 Norte 0 1015.5 0.5 65
2018-04-23 20:00:00 20.1 21 Nordeste 33 Nordeste 0 1015 -0.2 59
2018-04-23 19:00:00 20.8 22 Nordeste 41 Nordeste 0 1015 -0.7 58
2018-04-23 18:00:00 20 32 Nordeste 45 Nordeste 0 1015 -1.3 65
2018-04-23 17:00:00 20.7 29 Nordeste 42 Nordeste 0 1015.2 -1.2 63
2018-04-23 16:00:00 21.7 29 Nordeste 39 Nordeste 0 1015.7 -0.8 57
2018-04-23 15:00:00 22.5 26 Nordeste 42 Nordeste 0 1016.3 -0.1 50
2018-04-23 14:00:00 21.8 32 Nordeste 46 Nordeste 0 1016.4 0.1 50
2018-04-23 13:00:00 21.6 31 Nordeste 46 Este 0 1016.5 0.4 52
2018-04-23 12:00:00 21.3 31 Nordeste 48 Nordeste 0 1016.4 0.4 53
2018-04-23 11:00:00 20.8 28 Nordeste 39 Este 0 1016.3 0.6 55
2018-04-23 10:00:00 20.5 23 Nordeste 35 Nordeste 0 1016.1 1 54
2018-04-23 09:00:00 18.1 17 Nordeste 30 Nordeste 0 1016 1.3 65
2018-04-23 08:00:00 17.1 17 Nordeste 28 Norte 0 1015.7 0.7 67
2018-04-23 07:00:00 16.1 17 Nordeste 28 Nordeste 0 1015.1 -0.2 74
2018-04-23 06:00:00 15.3 15 Nordeste 26 Nordeste 0 1014.7 -0.9 79
2018-04-23 05:00:00 15.9 17 Nordeste 26 Nordeste 0 1015 -0.9 78
2018-04-23 04:00:00 15.7 15 Nordeste 22 Nordeste 0 1015.3 -0.7 80
2018-04-23 03:00:00 16 16 Nordeste 33 Nordeste 0 1015.6 -0.5 78
2018-04-23 02:00:00 16.8 20 Nordeste 32 Nordeste 0 1015.9 -0.1 73
2018-04-23 01:00:00 16.7 19 Nordeste 30 Nordeste 0 1016 0.5 76
2018-04-23 00:00:00 16.9 16 Nordeste 30 Este 0 1016.1 1 74
2018-04-22 23:00:00 16.5 17 Nordeste 26 Nordeste 0 1016 1.2 81
2018-04-22 22:00:00 16.7 15 Nordeste 26 Este 0 1015.5 0.5 79
2018-04-22 21:00:00 16.9 15 Nordeste 24 Nordeste 0 1015.1 -0.1 77
2018-04-22 20:00:00 17.5 16 Nordeste 28 Este 0 1014.8 -0.4 76
2018-04-22 19:00:00 18.6 20 Nordeste 33 Nordeste 0 1015 -0.6 71
2018-04-22 18:00:00 19.3 20 Nordeste 32 Este 0 1015.2 -1.1 69
2018-04-22 17:00:00 19.7 24 Nordeste 35 Este 0 1015.2 -1 65
2018-04-22 16:00:00 20.4 24 Nordeste 35 Nordeste 0 1015.6 -1.1 61
2018-04-22 15:00:00 20.3 22 Nordeste 35 Nordeste 0 1016.3 -0.3 63
2018-04-22 14:00:00 20.3 22 Nordeste 33 Este 0 1016.2 -0.3 64
2018-04-22 13:00:00 19.7 19 Nordeste 32 Nordeste 0 1016.7 0.5 67
2018-04-22 12:00:00 19.5 23 Nordeste 33 Nordeste 0 1016.6 0.6 66
2018-04-22 11:00:00 19.7 19 Nordeste 28 Nordeste 0 1016.5 0.8 62
2018-04-22 10:00:00 18.5 16 Nordeste 24 Nordeste 0 1016.2 0.7 71
2018-04-22 09:00:00 16.5 13 Nordeste 21 Nordeste 0 1016 0.5 79
2018-04-22 08:00:00 14.5 14 Nordeste 17 Nordeste 0 1015.7 -0.1 83
2018-04-22 07:00:00 13.8 6 Nordeste 13 Norte 0 1015.5 -0.8 77
2018-04-22 06:00:00 14.6 11 Nordeste 18 Nordeste 0 1015.5 -1.3 74
2018-04-22 05:00:00 14 12 Nordeste 15 Nordeste 0 1015.8 -1.4 81
2018-04-22 04:00:00 12.6 9 Norte 11 Nordeste 0 1016.3 -1.1 87
2018-04-22 03:00:00 13.7 8 Nordeste 9 Nordeste 0 1016.8 -0.9 83
2018-04-22 02:00:00 15 7 Nordeste 15 Nordeste 0 1017.2 -0.5 78
2018-04-22 01:00:00 14.9 10 Nordeste 18 Nordeste 0 1017.4 0.1 76
2018-04-22 00:00:00 15.1 9 Nordeste 24 Norte 0 1017.7 0.6 74